Kirklareli, Turkey

6:43 AM EEST on August 29, 2016 (GMT +0300)
Avren | | Change Station

Elev 1306 ft 41.69 °N, 27.56 °E | Updated 27 minutes ago

Scattered Clouds
Scattered Clouds
58.8 °F
Feels Like 58.8 °F
N
0.0
Wind Variable Wind from SSW
Gusts 0.0 mph

Today
High -- | Low -- °F
--% Chance of Precip.
Yesterday
High -- | Low -- °F
Precip. -- in
Pressure 29.95 in
Visibility 6.2 miles
Clouds Few 3500 ft
Scattered Clouds 4400 ft
Dew Point 23 °F
Humidity 26%
Rainfall 0.00 in
Snow Depth Not available.
6:34 AM 7:48 PM
Waning Crescent, 11% visible
METAR LBBG 290330Z 23005KT 200V260 9999 FEW035 SCT044 18/17 Q1014 NOSIG
Pressure 29.95 in
Visibility 6.2 miles
Clouds Few 3500 ft
Scattered Clouds 4400 ft
Dew Point 23 °F
Humidity 26%
Rainfall 0.00 in
Snow Depth Not available.
6:34 AM 7:48 PM
Waning Crescent, 11% visible
METAR LBBG 290330Z 23005KT 200V260 9999 FEW035 SCT044 18/17 Q1014 NOSIG

10-Day Weather Forecast

×

Almanac

Astronomy

Aug. 29, 2016 Rise Set
Actual Time
Civil Twilight
Nautical Twilight
Astronomical Twilight
Moon
Length of Visible Light
Length of Day
Tomorrow will be .
, % of the Moon is Illuminated

Today's Extremes

Country Highs Country Lows

Community

WunderPhotos

Upload Photos

1,935,783 photos uploaded!

WunderBlog® & News

Nearby

Air Quality

  Air Quality AQ Index Pollutant
Not available.

Snow Depth

Station Depth Elevation

Earthquake Activity

City Distance Mag. Time & Date
Minimum magnitude displayed is 2.5.

Coastal Water Temperatures

Place Temperature

Stations

Nearby Weather Stations

Station Location Temp. Windchill Dew Point Humidity Wind Precip. Elev Updated Type